createdAt,value
2022-10-15T00:00:43.617Z,26.10
2022-10-15T00:01:43.659Z,26.50
2022-10-15T00:02:43.583Z,25.80
2022-10-15T00:03:43.562Z,25.60
2022-10-15T00:04:43.545Z,26.20
2022-10-15T00:05:43.527Z,26.60
2022-10-15T00:06:43.512Z,25.80
2022-10-15T00:07:43.490Z,26.40
2022-10-15T00:08:43.473Z,27.10
2022-10-15T00:09:43.457Z,27.20
2022-10-15T00:10:43.447Z,27.60
2022-10-15T00:11:43.416Z,26.70
2022-10-15T00:12:43.405Z,25.80
2022-10-15T00:13:43.389Z,27.70
2022-10-15T00:14:43.366Z,27.00
2022-10-15T00:15:43.345Z,27.60
2022-10-15T00:16:43.329Z,25.60
2022-10-15T00:17:43.328Z,27.00
2022-10-15T00:18:43.298Z,26.90
2022-10-15T00:19:43.275Z,28.50
2022-10-15T00:20:43.260Z,27.20
2022-10-15T00:21:43.238Z,27.50
2022-10-15T00:22:43.219Z,28.30
2022-10-15T00:23:43.199Z,27.70
2022-10-15T00:24:43.188Z,27.20
2022-10-15T00:25:43.166Z,28.10
2022-10-15T00:26:43.152Z,28.50
2022-10-15T00:27:43.130Z,29.20
2022-10-15T00:28:43.149Z,30.30
2022-10-15T00:29:43.095Z,28.20
2022-10-15T00:30:43.074Z,29.10
2022-10-15T00:31:43.058Z,29.20
2022-10-15T00:32:43.044Z,27.20
2022-10-15T00:33:43.041Z,27.40
2022-10-15T00:34:43.001Z,28.20
2022-10-15T00:35:42.994Z,28.60
2022-10-15T00:36:42.970Z,29.50
2022-10-15T00:37:42.951Z,28.50
2022-10-15T00:38:42.933Z,27.90
2022-10-15T00:39:42.919Z,28.70
2022-10-15T00:40:42.896Z,27.40
2022-10-15T00:41:42.883Z,28.50
2022-10-15T00:42:42.860Z,27.50
2022-10-15T00:43:42.844Z,29.10
2022-10-15T00:44:42.825Z,29.00
2022-10-15T00:45:42.809Z,28.40
2022-10-15T00:46:42.783Z,29.60
2022-10-15T00:47:42.779Z,28.10
2022-10-15T00:48:42.759Z,27.10
2022-10-15T00:49:42.760Z,28.30
2022-10-15T00:50:42.712Z,29.20
2022-10-15T00:51:42.705Z,27.80
2022-10-15T00:52:42.676Z,30.30
2022-10-15T00:53:42.660Z,27.10
2022-10-15T00:54:42.643Z,29.20
2022-10-15T00:55:42.626Z,28.80
2022-10-15T00:56:42.611Z,28.90
2022-10-15T00:57:42.587Z,29.30
2022-10-15T00:58:42.570Z,27.90
2022-10-15T00:59:42.554Z,28.00
2022-10-15T01:00:42.533Z,28.00
2022-10-15T01:01:42.515Z,27.30
2022-10-15T01:02:42.503Z,28.30
2022-10-15T01:03:42.481Z,28.80
2022-10-15T01:04:42.462Z,28.80
2022-10-15T01:05:42.464Z,28.50
2022-10-15T01:06:42.423Z,27.30
2022-10-15T01:07:42.409Z,28.60
2022-10-15T01:08:42.394Z,27.30
2022-10-15T01:09:42.374Z,28.30
2022-10-15T01:10:42.357Z,29.10
2022-10-15T01:11:42.338Z,26.80
2022-10-15T01:12:42.314Z,27.60
2022-10-15T01:13:42.298Z,28.90
2022-10-15T01:14:42.280Z,27.30
2022-10-15T01:15:42.261Z,28.30
2022-10-15T01:16:42.244Z,26.80
2022-10-15T01:17:42.228Z,28.80
2022-10-15T01:18:42.207Z,28.00
2022-10-15T01:19:42.190Z,27.50
2022-10-15T01:20:42.171Z,27.50
2022-10-15T01:21:42.327Z,26.70
2022-10-15T01:22:42.132Z,27.70
2022-10-15T01:23:42.117Z,27.70
2022-10-15T01:24:42.098Z,26.90
2022-10-15T01:25:42.082Z,27.40
2022-10-15T01:26:42.058Z,28.30
2022-10-15T01:27:42.046Z,28.90
2022-10-15T01:28:42.107Z,28.30
2022-10-15T01:29:42.008Z,27.80
2022-10-15T01:30:41.991Z,28.00
2022-10-15T01:31:41.979Z,28.60
2022-10-15T01:32:41.954Z,27.60
2022-10-15T01:33:41.932Z,29.20
2022-10-15T01:34:41.917Z,28.30
2022-10-15T01:35:41.897Z,27.30
2022-10-15T01:36:41.880Z,26.90
2022-10-15T01:37:41.886Z,26.80
2022-10-15T01:38:41.841Z,26.50
2022-10-15T01:39:41.823Z,27.20
2022-10-15T01:40:41.806Z,27.10
2022-10-15T01:41:41.788Z,26.90
2022-10-15T01:42:41.769Z,26.00
2022-10-15T01:43:41.755Z,27.30
2022-10-15T01:44:41.735Z,25.40
2022-10-15T01:45:41.724Z,26.00
2022-10-15T01:46:41.701Z,26.80
2022-10-15T01:47:41.678Z,25.40
2022-10-15T01:48:41.666Z,25.60
2022-10-15T01:49:41.652Z,26.30
2022-10-15T01:50:41.626Z,26.50
2022-10-15T01:51:41.613Z,26.20
2022-10-15T01:52:41.587Z,25.30
2022-10-15T01:53:41.589Z,26.90
2022-10-15T01:54:41.548Z,26.30
2022-10-15T01:55:41.535Z,27.20
2022-10-15T01:56:41.517Z,27.70
2022-10-15T01:57:41.494Z,28.50
2022-10-15T01:58:41.477Z,27.00
2022-10-15T01:59:41.464Z,26.80
2022-10-15T02:00:41.501Z,26.80
2022-10-15T02:02:41.406Z,26.30
2022-10-15T02:03:41.387Z,27.50
2022-10-15T02:04:41.368Z,28.70
2022-10-15T02:05:41.348Z,27.90
2022-10-15T02:06:41.334Z,29.00
2022-10-15T02:07:41.312Z,27.10
2022-10-15T02:08:41.294Z,28.00
2022-10-15T02:09:41.296Z,27.60
2022-10-15T02:10:41.289Z,27.60
2022-10-15T02:11:41.239Z,27.50
2022-10-15T02:12:41.222Z,27.30
2022-10-15T02:13:41.205Z,26.20
2022-10-15T02:14:41.182Z,29.50
2022-10-15T02:15:41.167Z,29.10
2022-10-15T02:16:41.150Z,28.40
2022-10-15T02:17:41.130Z,28.80
2022-10-15T02:18:41.115Z,27.40
2022-10-15T02:19:41.094Z,27.90
2022-10-15T02:20:41.082Z,26.80
2022-10-15T02:21:41.059Z,27.20
2022-10-15T02:22:41.040Z,28.40
2022-10-15T02:23:41.023Z,27.50
2022-10-15T02:24:41.001Z,26.90
2022-10-15T02:25:41.003Z,27.70
2022-10-15T02:26:40.962Z,26.30
2022-10-15T02:27:40.949Z,28.30
2022-10-15T02:28:40.967Z,28.80
2022-10-15T02:29:40.918Z,28.00
2022-10-15T02:30:40.891Z,28.20
2022-10-15T02:31:40.875Z,29.30
2022-10-15T02:32:40.857Z,28.60
2022-10-15T02:33:40.843Z,28.90
2022-10-15T02:34:40.824Z,28.00
2022-10-15T02:35:40.801Z,29.50
2022-10-15T02:36:40.784Z,29.50
2022-10-15T02:37:40.763Z,27.90
2022-10-15T02:38:40.745Z,28.70
2022-10-15T02:39:40.728Z,28.30
2022-10-15T02:40:40.709Z,28.80
2022-10-15T02:41:40.714Z,29.20
2022-10-15T02:42:40.669Z,28.50
2022-10-15T02:43:40.656Z,29.80
2022-10-15T02:44:40.635Z,29.40
2022-10-15T02:45:40.619Z,28.70
2022-10-15T02:46:40.600Z,27.80
2022-10-15T02:47:40.585Z,28.40
2022-10-15T02:48:40.564Z,29.60
2022-10-15T02:49:40.544Z,29.20
2022-10-15T02:50:40.529Z,28.60
2022-10-15T02:51:40.511Z,28.60
2022-10-15T02:52:40.491Z,28.20
2022-10-15T02:53:40.467Z,29.10
2022-10-15T02:54:40.454Z,28.20
2022-10-15T02:55:40.434Z,28.40
2022-10-15T02:56:40.421Z,28.10
2022-10-15T02:57:40.421Z,29.30
2022-10-15T02:58:40.385Z,29.20
2022-10-15T02:59:40.360Z,29.30
2022-10-15T03:00:40.502Z,29.70
2022-10-15T03:01:40.324Z,30.20
2022-10-15T03:02:40.311Z,29.20
2022-10-15T03:03:40.286Z,29.30
2022-10-15T03:04:40.275Z,29.20
2022-10-15T03:05:40.253Z,29.50
2022-10-15T03:06:40.235Z,29.70
2022-10-15T03:07:40.215Z,29.20
2022-10-15T03:08:40.194Z,30.70
2022-10-15T03:09:40.176Z,30.10
2022-10-15T03:10:40.158Z,29.90
2022-10-15T03:11:40.142Z,30.90
2022-10-15T03:12:40.129Z,31.10
2022-10-15T03:13:40.125Z,31.10
2022-10-15T03:14:40.084Z,30.40
2022-10-15T03:15:40.067Z,30.40
2022-10-15T03:16:40.046Z,30.10
2022-10-15T03:17:40.042Z,30.30
2022-10-15T03:18:40.883Z,29.90
2022-10-15T03:19:39.997Z,32.00
2022-10-15T03:20:39.979Z,31.70
2022-10-15T03:21:39.954Z,30.90
2022-10-15T03:22:39.939Z,32.00
2022-10-15T03:23:39.923Z,31.10
2022-10-15T03:24:39.908Z,29.10
2022-10-15T03:25:39.886Z,31.60
2022-10-15T03:26:39.865Z,31.50
2022-10-15T03:27:39.850Z,31.10
2022-10-15T03:28:39.877Z,31.40
2022-10-15T03:29:39.838Z,31.10
2022-10-15T03:30:39.793Z,31.50
2022-10-15T03:31:39.778Z,30.50
2022-10-15T03:32:39.818Z,30.10
2022-10-15T03:33:39.737Z,29.80
2022-10-15T03:34:39.722Z,30.10
2022-10-15T03:35:39.701Z,29.40
2022-10-15T03:36:39.683Z,29.20
2022-10-15T03:37:39.661Z,29.50
2022-10-15T03:38:39.644Z,29.60
2022-10-15T03:39:39.624Z,27.90
2022-10-15T03:40:39.606Z,27.60
2022-10-15T03:41:39.666Z,27.90
2022-10-15T03:42:39.568Z,26.40
2022-10-15T03:43:42.647Z,28.20
2022-10-15T03:44:39.533Z,27.10
2022-10-15T03:45:39.541Z,28.70
2022-10-15T03:46:39.530Z,28.00
2022-10-15T03:47:39.478Z,27.90
2022-10-15T03:48:39.458Z,28.80
2022-10-15T03:49:39.442Z,28.90
2022-10-15T03:50:39.502Z,30.50
2022-10-15T03:51:39.406Z,28.60
2022-10-15T03:52:39.381Z,30.20
2022-10-15T03:53:39.366Z,30.70
2022-10-15T03:54:39.348Z,29.50
2022-10-15T03:55:39.328Z,29.70
2022-10-15T03:56:39.315Z,29.10
2022-10-15T03:57:39.294Z,29.70
2022-10-15T03:58:39.277Z,30.20
2022-10-15T03:59:39.334Z,31.70
2022-10-15T04:00:39.235Z,30.50
2022-10-15T04:01:39.237Z,30.80
2022-10-15T04:02:39.201Z,29.90
2022-10-15T04:03:39.178Z,30.50
2022-10-15T04:04:39.165Z,30.50
2022-10-15T04:05:39.140Z,30.20
2022-10-15T04:06:39.121Z,29.90
2022-10-15T04:07:39.107Z,28.90
2022-10-15T04:08:39.152Z,30.50
2022-10-15T04:09:39.069Z,31.50
2022-10-15T04:10:39.047Z,29.90
2022-10-15T04:11:39.030Z,29.80
2022-10-15T04:12:39.013Z,27.50
2022-10-15T04:13:38.993Z,28.00
2022-10-15T04:14:38.974Z,27.90
2022-10-15T04:15:38.959Z,25.60
2022-10-15T04:16:38.941Z,26.40
2022-10-15T04:17:38.935Z,25.80
2022-10-15T04:18:38.906Z,25.80
2022-10-15T04:19:38.889Z,25.30
2022-10-15T04:20:38.859Z,25.90
2022-10-15T04:21:38.847Z,27.50
2022-10-15T04:22:38.822Z,26.50
2022-10-15T04:23:38.808Z,27.70
2022-10-15T04:24:38.788Z,27.30
2022-10-15T04:25:38.768Z,27.20
2022-10-15T04:26:38.751Z,28.00
2022-10-15T04:27:38.735Z,29.00
2022-10-15T04:28:38.757Z,28.70
2022-10-15T04:29:38.697Z,27.40
2022-10-15T04:30:38.678Z,28.10
2022-10-15T04:31:38.658Z,29.40
2022-10-15T04:32:38.640Z,29.10
2022-10-15T04:33:38.651Z,29.90
2022-10-15T04:34:38.631Z,29.40
2022-10-15T04:35:38.586Z,28.30
2022-10-15T04:36:38.568Z,29.70
2022-10-15T04:37:38.549Z,29.60
2022-10-15T04:38:38.524Z,30.00
2022-10-15T04:39:38.508Z,28.30
2022-10-15T04:40:38.496Z,30.90
2022-10-15T04:41:38.473Z,30.50
2022-10-15T04:42:38.456Z,30.70
2022-10-15T04:43:38.431Z,30.70
2022-10-15T04:44:38.413Z,30.10
2022-10-15T04:45:38.397Z,30.00
2022-10-15T04:46:38.375Z,31.50
2022-10-15T04:47:38.359Z,31.70
2022-10-15T04:48:42.022Z,30.70
2022-10-15T04:49:38.339Z,31.00
2022-10-15T04:50:38.299Z,31.60
2022-10-15T04:51:38.280Z,29.60
2022-10-15T04:52:38.263Z,29.80
2022-10-15T04:53:38.245Z,29.70
2022-10-15T04:54:38.225Z,28.60
2022-10-15T04:55:38.212Z,28.10
2022-10-15T04:56:38.213Z,28.10
2022-10-15T04:57:38.170Z,31.10
2022-10-15T04:58:38.155Z,28.40
2022-10-15T04:59:38.137Z,29.30
2022-10-15T05:00:38.115Z,27.90
2022-10-15T05:01:38.100Z,28.60
2022-10-15T05:02:38.155Z,28.00
2022-10-15T05:03:40.991Z,29.00
2022-10-15T05:04:38.042Z,29.60
2022-10-15T05:05:38.038Z,28.10
2022-10-15T05:06:38.003Z,27.80
2022-10-15T05:07:37.981Z,29.50
2022-10-15T05:08:37.965Z,29.20
2022-10-15T05:09:39.226Z,30.90
2022-10-15T05:10:37.924Z,29.90
2022-10-15T05:11:37.907Z,30.00
2022-10-15T05:12:37.930Z,28.90
2022-10-15T05:13:37.869Z,28.30
2022-10-15T05:14:37.851Z,29.10
2022-10-15T05:15:37.828Z,28.10
2022-10-15T05:16:37.815Z,29.70
2022-10-15T05:17:37.803Z,28.80
2022-10-15T05:18:37.774Z,28.00
2022-10-15T05:19:37.754Z,28.70
2022-10-15T05:20:37.741Z,28.80
2022-10-15T05:21:37.793Z,28.70
2022-10-15T05:22:37.697Z,28.50
2022-10-15T05:23:37.680Z,30.10
2022-10-15T05:24:37.659Z,28.10
2022-10-15T05:25:37.642Z,28.50
2022-10-15T05:26:37.623Z,29.10
2022-10-15T05:27:37.609Z,29.40
2022-10-15T05:28:37.636Z,30.10
2022-10-15T05:29:37.568Z,29.00
2022-10-15T05:30:37.553Z,30.70
2022-10-15T05:31:37.530Z,29.80
2022-10-15T05:32:37.518Z,30.60
2022-10-15T05:33:37.490Z,29.90
2022-10-15T05:34:37.470Z,28.20
2022-10-15T05:35:37.451Z,31.00
2022-10-15T05:36:37.434Z,30.90
2022-10-15T05:37:37.536Z,30.80
2022-10-15T05:38:37.395Z,30.70
2022-10-15T05:39:37.380Z,31.80
2022-10-15T05:40:37.357Z,31.10
2022-10-15T05:41:37.344Z,31.90
2022-10-15T05:42:37.318Z,30.60
2022-10-15T05:43:40.372Z,30.60
2022-10-15T05:44:37.293Z,32.00
2022-10-15T05:45:37.266Z,34.90
2022-10-15T05:46:37.244Z,32.10
2022-10-15T05:47:37.228Z,33.00
2022-10-15T05:48:37.208Z,32.20
2022-10-15T05:49:37.192Z,32.50
2022-10-15T05:50:37.168Z,32.80
2022-10-15T05:51:37.150Z,32.80
2022-10-15T05:52:37.137Z,33.00
2022-10-15T05:53:37.137Z,31.50
2022-10-15T05:54:37.093Z,31.90
2022-10-15T05:55:37.079Z,31.20
2022-10-15T05:56:37.054Z,32.40
2022-10-15T05:57:37.040Z,31.70
2022-10-15T05:58:37.674Z,32.50
2022-10-15T05:59:37.000Z,33.00
2022-10-15T06:00:36.982Z,32.40
2022-10-15T06:01:36.998Z,34.00
2022-10-15T06:02:37.069Z,33.00
2022-10-15T06:03:36.942Z,30.90
2022-10-15T06:04:36.910Z,35.10
2022-10-15T06:05:36.886Z,31.20
2022-10-15T06:06:36.868Z,31.20
2022-10-15T06:07:36.851Z,31.50
2022-10-15T06:08:36.835Z,31.60
2022-10-15T06:09:36.837Z,31.40
2022-10-15T06:10:36.790Z,31.70
2022-10-15T06:11:36.777Z,32.50
2022-10-15T06:12:36.755Z,32.40
2022-10-15T06:13:36.743Z,32.50
2022-10-15T06:14:36.716Z,31.30
2022-10-15T06:15:36.701Z,31.30
2022-10-15T06:16:36.683Z,32.50
2022-10-15T06:17:36.666Z,33.50
2022-10-15T06:18:36.645Z,33.70
2022-10-15T06:19:36.625Z,31.60
2022-10-15T06:20:36.604Z,31.90
2022-10-15T06:21:36.587Z,34.30
2022-10-15T06:23:36.553Z,34.10
2022-10-15T06:24:36.535Z,34.40
2022-10-15T06:25:36.529Z,35.40
2022-10-15T06:26:36.496Z,34.20
2022-10-15T06:27:36.475Z,34.10
2022-10-15T06:28:36.497Z,33.80
2022-10-15T06:29:36.438Z,35.80
2022-10-15T06:30:36.415Z,34.60
2022-10-15T06:31:36.400Z,34.80
2022-10-15T06:32:36.383Z,33.60
2022-10-15T06:33:36.367Z,34.60
2022-10-15T06:34:36.347Z,34.40
2022-10-15T06:35:36.322Z,33.60
2022-10-15T06:36:36.306Z,34.80
2022-10-15T06:37:36.290Z,34.70
2022-10-15T06:38:36.265Z,34.50
2022-10-15T06:39:36.249Z,35.10
2022-10-15T06:40:36.241Z,34.00
2022-10-15T06:41:36.237Z,36.00
2022-10-15T06:42:36.197Z,35.70
2022-10-15T06:43:36.175Z,35.50
2022-10-15T06:44:36.163Z,36.90
2022-10-15T06:45:36.138Z,36.80
2022-10-15T06:46:36.120Z,37.60
2022-10-15T06:47:36.102Z,37.10
2022-10-15T06:48:36.085Z,36.40
2022-10-15T06:49:36.071Z,35.90
2022-10-15T06:50:36.047Z,38.40
2022-10-15T06:51:36.032Z,36.90
2022-10-15T06:52:36.009Z,37.90
2022-10-15T06:53:35.993Z,38.10
2022-10-15T06:54:35.976Z,39.90
2022-10-15T06:55:35.955Z,38.70
2022-10-15T06:56:35.937Z,37.40
2022-10-15T06:57:35.942Z,38.00
2022-10-15T06:58:35.902Z,39.50
2022-10-15T06:59:38.704Z,39.90
2022-10-15T07:01:38.526Z,38.80
2022-10-15T07:02:35.827Z,36.00
2022-10-15T07:03:35.810Z,37.00
2022-10-15T07:04:35.793Z,38.10
2022-10-15T07:05:35.772Z,38.10
2022-10-15T07:06:35.756Z,39.60
2022-10-15T07:07:35.740Z,39.80
2022-10-15T07:08:35.724Z,39.70
2022-10-15T07:09:35.708Z,38.30
2022-10-15T07:10:35.685Z,36.50
2022-10-15T07:11:35.662Z,38.80
2022-10-15T07:12:35.645Z,37.90
2022-10-15T07:13:35.651Z,39.30
2022-10-15T07:14:40.010Z,38.80
2022-10-15T07:15:35.591Z,38.70
2022-10-15T07:16:35.580Z,37.30
2022-10-15T07:17:35.550Z,37.80
2022-10-15T07:18:35.530Z,38.70
2022-10-15T07:19:35.514Z,38.90
2022-10-15T07:20:35.495Z,39.40
2022-10-15T07:21:35.479Z,40.30
2022-10-15T07:22:35.459Z,39.60
2022-10-15T07:23:35.446Z,38.20
2022-10-15T07:24:35.429Z,37.70
2022-10-15T07:25:35.408Z,40.30
2022-10-15T07:26:35.399Z,40.60
2022-10-15T07:27:35.367Z,39.20
2022-10-15T07:28:35.403Z,38.20
2022-10-15T07:29:35.351Z,40.20
2022-10-15T07:30:35.312Z,38.90
2022-10-15T07:31:35.398Z,38.00
2022-10-15T07:32:35.275Z,38.60
2022-10-15T07:33:35.256Z,39.60
2022-10-15T07:34:35.239Z,38.60
2022-10-15T07:35:35.220Z,37.70
2022-10-15T07:36:35.204Z,37.80
2022-10-15T07:37:35.187Z,39.00
2022-10-15T07:38:35.165Z,38.10
2022-10-15T07:39:37.790Z,37.50
2022-10-15T07:40:35.130Z,35.90
2022-10-15T07:41:35.112Z,37.90
2022-10-15T07:42:35.101Z,38.10
2022-10-15T07:43:35.079Z,39.30
2022-10-15T07:44:35.058Z,36.70
2022-10-15T07:45:35.057Z,37.90
2022-10-15T07:46:35.018Z,35.60
2022-10-15T07:47:35.001Z,35.00
2022-10-15T07:48:34.985Z,36.30
2022-10-15T07:49:34.965Z,35.70
2022-10-15T07:50:36.382Z,34.80
2022-10-15T07:51:34.929Z,35.80
2022-10-15T07:52:34.910Z,33.40
2022-10-15T07:53:34.904Z,33.50
2022-10-15T07:54:34.872Z,33.10
2022-10-15T07:55:34.857Z,33.10
2022-10-15T07:56:34.840Z,33.60
2022-10-15T07:57:34.819Z,33.70
2022-10-15T07:58:34.799Z,33.90
2022-10-15T07:59:34.785Z,32.90
2022-10-15T08:00:34.782Z,33.00
2022-10-15T08:01:34.770Z,31.10
2022-10-15T08:02:34.738Z,29.80
2022-10-15T08:03:34.718Z,30.10
2022-10-15T08:04:34.705Z,29.20
2022-10-15T08:05:34.694Z,28.70
2022-10-15T08:06:34.673Z,31.40
2022-10-15T08:07:34.660Z,29.40
2022-10-15T08:08:34.644Z,29.70
2022-10-15T08:09:34.664Z,28.90
2022-10-15T08:10:34.619Z,27.40
2022-10-15T08:11:34.606Z,28.50
2022-10-15T08:12:34.588Z,28.50
2022-10-15T08:13:34.574Z,27.10
2022-10-15T08:14:34.562Z,27.90
2022-10-15T08:15:34.540Z,27.90
2022-10-15T08:16:34.529Z,29.80
2022-10-15T08:17:34.533Z,27.20
2022-10-15T08:18:34.495Z,28.50
2022-10-15T08:19:34.485Z,27.60
2022-10-15T08:20:34.468Z,27.00
2022-10-15T08:21:34.451Z,27.00
2022-10-15T08:22:34.442Z,26.90
2022-10-15T08:23:34.416Z,26.50
2022-10-15T08:24:34.411Z,25.60
2022-10-15T08:25:34.383Z,26.70
2022-10-15T08:26:34.368Z,28.10
2022-10-15T08:27:34.354Z,27.50
2022-10-15T08:28:34.396Z,27.70
2022-10-15T08:29:34.368Z,26.60
2022-10-15T08:30:34.301Z,27.60
2022-10-15T08:31:34.286Z,26.50
2022-10-15T08:32:34.271Z,25.80
2022-10-15T08:33:34.270Z,26.80
2022-10-15T08:34:34.232Z,26.20
2022-10-15T08:35:34.219Z,28.00
2022-10-15T08:36:34.201Z,25.10
2022-10-15T08:37:34.189Z,26.80
2022-10-15T08:38:34.170Z,27.60
2022-10-15T08:39:34.148Z,26.60
2022-10-15T08:40:34.136Z,26.40
2022-10-15T08:41:34.121Z,26.40
2022-10-15T08:42:34.098Z,27.90
2022-10-15T08:43:34.090Z,26.40
2022-10-15T08:44:34.064Z,26.80
2022-10-15T08:45:34.047Z,25.80
2022-10-15T08:46:34.046Z,26.60
2022-10-15T08:47:34.014Z,25.80
2022-10-15T08:48:33.994Z,27.70
2022-10-15T08:49:34.024Z,27.00
2022-10-15T08:50:33.961Z,26.30
2022-10-15T08:51:33.945Z,24.60
2022-10-15T08:52:33.930Z,26.70
2022-10-15T08:53:33.911Z,25.00
2022-10-15T08:54:33.893Z,26.40
2022-10-15T08:55:33.878Z,26.80
2022-10-15T08:56:33.860Z,24.70
2022-10-15T08:57:33.843Z,25.10
2022-10-15T08:58:38.151Z,26.30
2022-10-15T08:59:33.876Z,25.70
2022-10-15T09:00:33.788Z,24.90
2022-10-15T09:01:33.781Z,26.50
2022-10-15T09:02:33.839Z,25.10
2022-10-15T09:03:33.735Z,25.70
2022-10-15T09:04:33.825Z,26.50
2022-10-15T09:05:33.726Z,25.00
2022-10-15T09:06:33.686Z,24.70
2022-10-15T09:07:33.669Z,24.40
2022-10-15T09:08:33.660Z,24.10
2022-10-15T09:09:33.685Z,24.20
2022-10-15T09:10:33.628Z,23.30
2022-10-15T09:11:33.615Z,23.60
2022-10-15T09:12:33.600Z,21.70
2022-10-15T09:13:33.676Z,24.50
2022-10-15T09:14:33.613Z,23.40
2022-10-15T09:15:33.551Z,22.70
2022-10-15T09:16:33.543Z,23.10
2022-10-15T09:17:33.528Z,22.20
2022-10-15T09:18:33.513Z,22.60
2022-10-15T09:19:33.596Z,21.40
2022-10-15T09:20:33.486Z,22.00
2022-10-15T09:21:33.485Z,21.40
2022-10-15T09:22:33.455Z,21.20
2022-10-15T09:23:33.438Z,21.50
2022-10-15T09:24:33.423Z,21.90
2022-10-15T09:25:33.406Z,22.70
2022-10-15T09:26:33.402Z,22.10
2022-10-15T09:27:33.383Z,21.40
2022-10-15T09:28:33.420Z,20.70
2022-10-15T09:29:33.351Z,21.20
2022-10-15T09:30:33.333Z,20.70
2022-10-15T09:31:33.328Z,20.60
2022-10-15T09:32:33.300Z,21.40
2022-10-15T09:33:33.287Z,21.60
2022-10-15T09:34:33.271Z,22.30
2022-10-15T09:35:33.256Z,22.20
2022-10-15T09:36:33.241Z,21.70
2022-10-15T09:37:33.242Z,22.30
2022-10-15T09:38:33.204Z,21.10
2022-10-15T09:39:33.189Z,20.60
2022-10-15T09:40:33.175Z,21.30
2022-10-15T09:41:33.153Z,21.80
2022-10-15T09:42:33.140Z,20.80
2022-10-15T09:43:33.121Z,22.00
2022-10-15T09:44:33.105Z,21.70
2022-10-15T09:45:33.086Z,21.00
2022-10-15T09:46:33.076Z,21.60
2022-10-15T09:47:33.056Z,22.00
2022-10-15T09:48:33.046Z,22.00
2022-10-15T09:49:36.355Z,22.30
2022-10-15T09:50:33.016Z,21.90
2022-10-15T09:51:32.987Z,22.20
2022-10-15T09:52:32.976Z,21.80
2022-10-15T09:53:32.976Z,20.40
2022-10-15T09:54:33.047Z,18.30
2022-10-15T09:55:32.925Z,20.00
2022-10-15T09:56:32.916Z,19.30
2022-10-15T09:57:32.900Z,19.10
2022-10-15T09:58:32.891Z,17.80
2022-10-15T10:00:32.863Z,17.10
2022-10-15T10:01:32.847Z,16.20
2022-10-15T10:02:32.908Z,15.30
2022-10-15T10:03:32.816Z,15.70
2022-10-15T10:04:32.805Z,15.70
2022-10-15T10:05:32.793Z,15.10
2022-10-15T10:06:32.790Z,15.00
2022-10-15T10:07:32.767Z,15.10
2022-10-15T10:08:32.761Z,14.60
2022-10-15T10:09:32.914Z,13.80
2022-10-15T10:10:32.735Z,14.00
2022-10-15T10:11:32.720Z,13.30
2022-10-15T10:12:32.714Z,13.70
2022-10-15T10:13:32.699Z,12.50
2022-10-15T10:14:32.688Z,13.30
2022-10-15T10:15:32.679Z,12.80
2022-10-15T10:16:32.670Z,12.50
2022-10-15T10:17:32.658Z,12.40
2022-10-15T10:18:32.646Z,12.20
2022-10-15T10:19:32.635Z,11.40
2022-10-15T10:20:32.630Z,12.10
2022-10-15T10:21:32.619Z,11.40
2022-10-15T10:22:32.612Z,11.40
2022-10-15T10:23:32.592Z,11.90
2022-10-15T10:24:32.641Z,11.30
2022-10-15T10:25:32.593Z,11.70
2022-10-15T10:26:32.562Z,11.80
2022-10-15T10:27:32.553Z,12.60
2022-10-15T10:28:32.612Z,11.90
2022-10-15T10:29:34.815Z,11.50
2022-10-15T10:30:32.521Z,11.70
2022-10-15T10:31:32.507Z,11.30
2022-10-15T10:32:32.503Z,11.50
2022-10-15T10:33:32.491Z,11.40
2022-10-15T10:34:32.487Z,12.30
2022-10-15T10:35:32.467Z,11.80
2022-10-15T10:36:32.459Z,11.00
2022-10-15T10:37:32.444Z,11.30
2022-10-15T10:38:32.442Z,12.30
2022-10-15T10:39:32.486Z,11.00
2022-10-15T10:40:32.417Z,11.50
2022-10-15T10:41:32.418Z,11.70
2022-10-15T10:42:32.394Z,11.20
2022-10-15T10:43:36.778Z,11.00
2022-10-15T10:44:32.377Z,11.60
2022-10-15T10:45:32.350Z,11.00
2022-10-15T10:46:32.347Z,10.20
2022-10-15T10:47:32.324Z,9.90
2022-10-15T10:48:32.321Z,9.40
2022-10-15T10:49:32.299Z,7.90
2022-10-15T10:50:32.294Z,7.70
2022-10-15T10:51:32.273Z,7.20
2022-10-15T10:52:32.270Z,8.30
2022-10-15T10:53:32.250Z,7.90
2022-10-15T10:54:32.444Z,7.50
2022-10-15T10:55:32.229Z,7.30
2022-10-15T10:56:32.213Z,7.60
2022-10-15T10:57:32.233Z,7.80
2022-10-15T10:58:32.190Z,7.60
2022-10-15T10:59:32.243Z,7.90
2022-10-15T11:00:32.263Z,7.20
2022-10-15T11:01:32.153Z,6.60
2022-10-15T11:02:32.141Z,6.60
2022-10-15T11:03:32.133Z,6.10
2022-10-15T11:04:32.157Z,5.60
2022-10-15T11:05:32.116Z,6.10
2022-10-15T11:06:32.094Z,6.20
2022-10-15T11:07:32.087Z,5.50
2022-10-15T11:08:32.071Z,5.80
2022-10-15T11:09:32.099Z,6.10
2022-10-15T11:10:32.048Z,6.30
2022-10-15T11:11:32.040Z,6.10
2022-10-15T11:12:32.025Z,6.00
2022-10-15T11:13:32.039Z,5.50
2022-10-15T11:14:32.004Z,5.60
2022-10-15T11:15:31.990Z,6.20
2022-10-15T11:16:31.977Z,5.90
2022-10-15T11:17:31.969Z,5.50
2022-10-15T11:18:31.957Z,5.30
2022-10-15T11:19:59.704Z,5.60
2022-10-15T11:20:49.937Z,5.30
2022-10-15T11:21:31.921Z,5.50
2022-10-15T11:22:31.906Z,5.00
2022-10-15T11:23:31.891Z,4.90
2022-10-15T11:24:42.559Z,4.80
2022-10-15T11:25:31.871Z,5.00
2022-10-15T11:26:41.448Z,5.20
2022-10-15T11:27:31.848Z,4.80
2022-10-15T11:28:31.872Z,4.90
2022-10-15T11:29:31.838Z,5.50
2022-10-15T11:30:31.808Z,5.40
2022-10-15T11:31:37.102Z,5.00
2022-10-15T11:32:47.745Z,5.40
2022-10-15T11:33:31.782Z,5.50
2022-10-15T11:34:31.803Z,5.00
2022-10-15T11:35:51.735Z,5.20
2022-10-15T11:36:31.736Z,5.20
2022-10-15T11:37:31.715Z,5.20
2022-10-15T11:38:31.700Z,5.70
2022-10-15T11:39:31.780Z,5.20
2022-10-15T11:41:31.663Z,5.70
2022-10-15T11:42:31.653Z,5.10
2022-10-15T11:43:31.638Z,5.00
2022-10-15T11:44:31.696Z,5.10
2022-10-15T11:45:31.636Z,5.30
2022-10-15T11:46:31.592Z,4.90
2022-10-15T11:47:31.589Z,4.60
2022-10-15T11:48:31.566Z,4.80
2022-10-15T11:49:31.597Z,5.30
2022-10-15T11:50:31.535Z,4.80
2022-10-15T11:51:31.523Z,4.20
2022-10-15T11:52:31.509Z,4.70
2022-10-15T11:53:31.491Z,4.40
2022-10-15T11:54:31.475Z,4.20
2022-10-15T11:55:31.462Z,4.20
2022-10-15T11:56:34.971Z,4.30
2022-10-15T11:57:31.431Z,4.30
2022-10-15T11:58:31.418Z,4.80
2022-10-15T11:59:31.499Z,4.40
2022-10-15T12:00:31.388Z,4.50
2022-10-15T12:01:31.395Z,4.40
2022-10-15T12:02:31.357Z,4.30
2022-10-15T12:03:31.346Z,4.00
2022-10-15T12:04:32.752Z,3.70
2022-10-15T12:05:31.315Z,3.90
2022-10-15T12:06:31.296Z,3.60
2022-10-15T12:07:31.290Z,3.40
2022-10-15T12:08:31.275Z,3.50
2022-10-15T12:09:31.253Z,3.30
2022-10-15T12:10:31.238Z,3.50
2022-10-15T12:11:31.222Z,3.20
2022-10-15T12:12:31.207Z,3.40
2022-10-15T12:13:31.193Z,3.20
2022-10-15T12:14:31.201Z,3.00
2022-10-15T12:15:31.159Z,2.50
2022-10-15T12:16:31.146Z,2.80
2022-10-15T12:17:31.156Z,2.40
2022-10-15T12:18:31.115Z,2.30
2022-10-15T12:19:31.104Z,2.20
2022-10-15T12:20:31.086Z,2.20
2022-10-15T12:21:31.070Z,2.50
2022-10-15T12:22:33.821Z,2.40
2022-10-15T12:23:31.041Z,2.40
2022-10-15T12:24:31.028Z,2.60
2022-10-15T12:25:31.009Z,2.80
2022-10-15T12:26:30.993Z,2.90
2022-10-15T12:27:30.980Z,2.80
2022-10-15T12:28:31.030Z,2.70
2022-10-15T12:29:30.949Z,2.10
2022-10-15T12:30:30.939Z,2.20
2022-10-15T12:31:33.933Z,2.40
2022-10-15T12:32:30.904Z,2.30
2022-10-15T12:33:30.907Z,2.10
2022-10-15T12:34:30.919Z,2.00
2022-10-15T12:35:30.865Z,1.80
2022-10-15T12:36:30.843Z,2.10
2022-10-15T12:37:30.824Z,2.10
2022-10-15T12:38:30.814Z,1.90
2022-10-15T12:39:51.085Z,2.00
2022-10-15T12:40:30.782Z,2.20
2022-10-15T12:41:30.765Z,2.20
2022-10-15T12:42:30.746Z,1.70
2022-10-15T12:43:30.727Z,2.30
2022-10-15T12:44:30.716Z,2.00
2022-10-15T12:45:31.399Z,1.80
2022-10-15T12:46:30.687Z,1.90
2022-10-15T12:47:30.668Z,2.10
2022-10-15T12:48:30.652Z,1.90
2022-10-15T12:49:30.654Z,2.20
2022-10-15T12:50:30.615Z,1.90
2022-10-15T12:51:30.599Z,1.90
2022-10-15T12:52:30.590Z,2.10
2022-10-15T12:53:30.647Z,2.00
2022-10-15T12:54:30.555Z,2.10
2022-10-15T12:55:30.543Z,1.90
2022-10-15T12:56:30.524Z,2.20
2022-10-15T12:57:30.505Z,2.50
2022-10-15T12:58:30.496Z,2.20
2022-10-15T12:59:30.476Z,2.10
2022-10-15T13:00:30.518Z,2.10
2022-10-15T13:01:30.604Z,2.20
2022-10-15T13:02:30.463Z,2.10